Time;durP1;ratioP1;P1;durP2;ratioP2;P2;SDS_P1;SDS_P2;PMS_P1;PMS_P2;Temp;Humidity;BMP_temperature;BMP_pressure;BME280_temperature;BME280_humidity;BME280_pressure;Samples;Min_cycle;Max_cycle;Signal;HPM_P1;HPM_P2
2023/09/26 00:01:31;;;;;;;6.63;4.38;;;;;;;;;;5127713;27;20122;-80
2023/09/26 00:03:57;;;;;;;8.07;4.55;;;;;;;;;;5111308;28;20499;-81
2023/09/26 00:06:24;;;;;;;7.45;4.40;;;;;;;;;;5111141;28;20036;-80
2023/09/26 00:08:52;;;;;;;7.40;4.60;;;;;;;;;;5102584;27;20043;-80
2023/09/26 00:11:18;;;;;;;7.25;4.80;;;;;;;;;;5132227;27;20074;-80
2023/09/26 00:13:44;;;;;;;7.13;4.60;;;;;;;;;;5133725;27;20039;-80
2023/09/26 00:16:11;;;;;;;8.15;4.68;;;;;;;;;;5131746;27;20031;-81
2023/09/26 00:18:40;;;;;;;8.88;4.97;;;;;;;;;;5132325;27;20039;-80
2023/09/26 00:21:07;;;;;;;6.70;4.65;;;;;;;;;;5131736;28;20043;-80
2023/09/26 00:23:33;;;;;;;8.80;4.85;;;;;;;;;;5148511;27;20050;-80
2023/09/26 00:25:59;;;;;;;8.48;4.85;;;;;;;;;;5125306;27;20048;-80
2023/09/26 00:28:25;;;;;;;8.93;4.50;;;;;;;;;;5137983;27;20114;-80
2023/09/26 00:30:51;;;;;;;10.13;4.55;;;;;;;;;;5126974;28;20082;-80
2023/09/26 00:33:18;;;;;;;6.57;4.40;;;;;;;;;;5139992;27;20584;-80
2023/09/26 00:35:44;;;;;;;8.45;4.60;;;;;;;;;;5119726;27;20051;-80
2023/09/26 00:38:10;;;;;;;6.75;4.57;;;;;;;;;;5134761;27;20047;-80
2023/09/26 00:40:36;;;;;;;7.55;4.68;;;;;;;;;;5151354;27;20046;-80
2023/09/26 00:43:02;;;;;;;7.20;4.35;;;;;;;;;;5122368;27;20039;-80
2023/09/26 00:45:28;;;;;;;7.43;4.63;;;;;;;;;;5145147;27;20120;-80
2023/09/26 00:47:54;;;;;;;6.90;4.25;;;;;;;;;;5157909;27;20122;-80
2023/09/26 00:50:22;;;;;;;7.43;4.40;;;;;;;;;;5139133;27;20178;-80
2023/09/26 00:52:51;;;;;;;6.43;4.18;;;;;;;;;;5142051;27;20070;-79
2023/09/26 00:55:17;;;;;;;6.75;4.35;;;;;;;;;;5135723;27;20134;-80
2023/09/26 00:57:44;;;;;;;7.10;4.00;;;;;;;;;;5137135;27;20146;-80
2023/09/26 01:00:15;;;;;;;7.00;3.80;;;;;;;;;;5118332;27;20047;-80
2023/09/26 01:02:41;;;;;;;6.95;4.00;;;;;;;;;;5118900;27;20100;-80
2023/09/26 01:05:08;;;;;;;6.25;4.07;;;;;;;;;;5135059;27;20753;-80
2023/09/26 01:07:34;;;;;;;5.97;4.13;;;;;;;;;;5118475;27;20050;-79
2023/09/26 01:10:01;;;;;;;6.70;4.47;;;;;;;;;;5126053;27;20043;-80
2023/09/26 01:12:27;;;;;;;6.57;4.53;;;;;;;;;;5133474;27;20043;-80
2023/09/26 01:14:54;;;;;;;7.43;4.40;;;;;;;;;;5134493;27;20053;-80
2023/09/26 01:17:20;;;;;;;8.52;4.57;;;;;;;;;;5137359;27;20439;-80
2023/09/26 01:19:46;;;;;;;7.00;4.15;;;;;;;;;;5117251;27;20042;-80
2023/09/26 01:22:16;;;;;;;6.88;3.90;;;;;;;;;;5121220;27;20039;-80
2023/09/26 01:24:43;;;;;;;7.57;4.28;;;;;;;;;;5137495;27;20046;-80
2023/09/26 01:27:09;;;;;;;6.35;4.00;;;;;;;;;;5110421;27;20043;-81
2023/09/26 01:29:36;;;;;;;8.20;4.15;;;;;;;;;;5123910;27;20126;-81
2023/09/26 01:32:02;;;;;;;6.28;4.20;;;;;;;;;;5157223;27;20049;-80
2023/09/26 01:34:28;;;;;;;7.97;4.07;;;;;;;;;;5139273;27;20051;-80
2023/09/26 01:36:55;;;;;;;6.90;4.55;;;;;;;;;;5113873;27;20491;-80
2023/09/26 01:39:21;;;;;;;5.85;3.92;;;;;;;;;;5134247;27;20050;-80
2023/09/26 01:41:47;;;;;;;6.13;4.13;;;;;;;;;;5135317;27;20149;-80
2023/09/26 01:44:13;;;;;;;8.65;4.57;;;;;;;;;;5136278;27;20505;-80
2023/09/26 01:46:39;;;;;;;7.95;4.55;;;;;;;;;;5116789;27;20129;-80
2023/09/26 01:49:05;;;;;;;7.60;4.38;;;;;;;;;;5156646;27;20066;-81
2023/09/26 01:51:31;;;;;;;8.52;4.30;;;;;;;;;;5156267;27;20050;-80
2023/09/26 01:53:57;;;;;;;6.25;4.45;;;;;;;;;;5138097;27;20039;-80
2023/09/26 01:56:23;;;;;;;7.05;4.82;;;;;;;;;;5110228;27;20061;-81
2023/09/26 01:58:49;;;;;;;7.60;4.90;;;;;;;;;;5124176;27;20043;-80
2023/09/26 02:01:15;;;;;;;6.80;4.60;;;;;;;;;;5136073;27;20491;-80
2023/09/26 02:03:42;;;;;;;7.55;4.82;;;;;;;;;;5156848;27;20125;-80
2023/09/26 02:06:08;;;;;;;6.72;4.88;;;;;;;;;;5120109;27;20093;-81
2023/09/26 02:08:34;;;;;;;7.45;4.85;;;;;;;;;;5138208;27;20042;-80
2023/09/26 02:11:00;;;;;;;7.07;5.00;;;;;;;;;;5154582;27;20423;-80
2023/09/26 02:13:26;;;;;;;8.05;4.72;;;;;;;;;;5138020;27;20078;-80
2023/09/26 02:15:52;;;;;;;8.75;4.93;;;;;;;;;;5152252;27;20043;-80
2023/09/26 02:18:18;;;;;;;9.73;5.00;;;;;;;;;;5128365;27;20091;-80
2023/09/26 02:20:44;;;;;;;9.15;5.25;;;;;;;;;;5142651;27;20380;-80
2023/09/26 02:23:10;;;;;;;7.60;5.32;;;;;;;;;;5131060;27;20042;-80
2023/09/26 02:25:36;;;;;;;8.80;5.20;;;;;;;;;;5119568;27;20048;-80
2023/09/26 02:28:02;;;;;;;6.57;4.93;;;;;;;;;;5113905;27;20039;-80
2023/09/26 02:30:29;;;;;;;6.55;5.53;;;;;;;;;;5137660;27;20064;-80
2023/09/26 02:32:55;;;;;;;8.15;5.40;;;;;;;;;;5106605;27;20119;-80
2023/09/26 02:35:21;;;;;;;7.72;5.15;;;;;;;;;;5155251;27;20408;-80
2023/09/26 02:37:47;;;;;;;12.98;6.53;;;;;;;;;;5133839;27;20080;-81
2023/09/26 02:40:14;;;;;;;8.20;5.43;;;;;;;;;;5153928;27;20103;-80
2023/09/26 02:42:41;;;;;;;8.15;5.88;;;;;;;;;;5147728;27;20031;-80
2023/09/26 02:45:07;;;;;;;9.02;6.03;;;;;;;;;;5133936;27;20057;-80
2023/09/26 02:47:33;;;;;;;7.65;6.20;;;;;;;;;;5104828;27;20042;-80
2023/09/26 02:50:00;;;;;;;9.43;6.57;;;;;;;;;;5129660;27;20053;-80
2023/09/26 02:52:26;;;;;;;9.90;6.25;;;;;;;;;;5100240;27;20043;-80
2023/09/26 02:54:53;;;;;;;9.48;6.40;;;;;;;;;;5124341;27;20038;-80
2023/09/26 02:57:19;;;;;;;9.43;6.63;;;;;;;;;;5134609;27;20035;-80
2023/09/26 02:59:45;;;;;;;8.20;6.30;;;;;;;;;;5136631;27;20406;-80
2023/09/26 03:02:11;;;;;;;7.63;6.07;;;;;;;;;;5136174;27;20433;-80
2023/09/26 03:04:37;;;;;;;8.13;6.38;;;;;;;;;;5155224;27;20046;-80
2023/09/26 03:07:03;;;;;;;10.45;6.43;;;;;;;;;;5154724;27;20042;-80
2023/09/26 03:09:31;;;;;;;8.95;6.40;;;;;;;;;;5153396;27;20069;-80
2023/09/26 03:11:57;;;;;;;8.57;6.60;;;;;;;;;;5153840;27;20047;-80
2023/09/26 03:14:23;;;;;;;9.77;6.68;;;;;;;;;;5134175;27;20054;-80
2023/09/26 03:16:49;;;;;;;9.10;6.68;;;;;;;;;;5134630;27;20436;-80
2023/09/26 03:19:17;;;;;;;9.25;6.95;;;;;;;;;;5139435;27;20049;-80
2023/09/26 03:21:43;;;;;;;9.63;6.78;;;;;;;;;;5126539;27;20043;-79
2023/09/26 03:24:09;;;;;;;9.93;7.00;;;;;;;;;;5126859;27;20078;-80
2023/09/26 03:26:35;;;;;;;9.60;6.55;;;;;;;;;;5099666;27;20058;-80
2023/09/26 03:29:01;;;;;;;10.85;6.57;;;;;;;;;;5115735;27;20046;-80
2023/09/26 03:31:28;;;;;;;10.60;6.45;;;;;;;;;;5134092;27;20087;-80
2023/09/26 03:33:54;;;;;;;8.65;6.88;;;;;;;;;;5129735;27;20046;-80
2023/09/26 03:36:20;;;;;;;10.63;6.80;;;;;;;;;;5153720;27;20046;-80
2023/09/26 03:38:46;;;;;;;9.20;6.65;;;;;;;;;;5135490;27;20517;-80
2023/09/26 03:41:12;;;;;;;8.50;6.40;;;;;;;;;;5136067;27;20043;-80
2023/09/26 03:43:39;;;;;;;11.85;6.75;;;;;;;;;;5117786;27;20421;-80
2023/09/26 03:46:06;;;;;;;10.20;7.05;;;;;;;;;;5151185;27;20051;-80
2023/09/26 03:48:33;;;;;;;10.98;6.97;;;;;;;;;;5120200;27;20055;-80
2023/09/26 03:51:15;;;;;;;10.52;6.90;;;;;;;;;;5116840;27;20142;-80
2023/09/26 03:53:41;;;;;;;9.60;6.90;;;;;;;;;;5132635;27;20497;-80
2023/09/26 03:56:08;;;;;;;10.20;6.70;;;;;;;;;;5127062;27;20597;-80
2023/09/26 03:58:34;;;;;;;9.73;7.10;;;;;;;;;;5154087;27;20526;-80
2023/09/26 04:01:09;;;;;;;10.43;7.10;;;;;;;;;;5135374;27;20042;-80
2023/09/26 04:03:36;;;;;;;12.50;7.30;;;;;;;;;;5135591;27;20133;-80
2023/09/26 04:06:02;;;;;;;10.27;7.72;;;;;;;;;;5135222;27;20374;-80
2023/09/26 04:08:28;;;;;;;10.30;6.82;;;;;;;;;;5133941;27;20049;-81
2023/09/26 04:10:54;;;;;;;11.48;7.05;;;;;;;;;;5153154;27;20034;-80
2023/09/26 04:13:20;;;;;;;10.48;7.20;;;;;;;;;;5139282;27;20487;-80
2023/09/26 04:15:46;;;;;;;10.45;7.47;;;;;;;;;;5133847;27;20043;-80
2023/09/26 04:18:12;;;;;;;12.38;7.40;;;;;;;;;;5133570;27;20046;-79
2023/09/26 04:20:38;;;;;;;10.68;7.25;;;;;;;;;;5115141;28;20150;-79
2023/09/26 04:23:05;;;;;;;10.40;7.45;;;;;;;;;;5134222;27;20503;-80
2023/09/26 04:25:31;;;;;;;12.05;7.85;;;;;;;;;;5111019;27;20036;-79
2023/09/26 04:27:58;;;;;;;13.23;7.65;;;;;;;;;;5137843;27;20379;-80
2023/09/26 04:30:24;;;;;;;11.68;7.55;;;;;;;;;;5120561;28;20399;-79
2023/09/26 04:32:50;;;;;;;10.95;7.72;;;;;;;;;;5114757;28;20035;-80
2023/09/26 04:35:16;;;;;;;9.48;7.35;;;;;;;;;;5114507;28;20073;-80
2023/09/26 04:37:42;;;;;;;14.57;7.40;;;;;;;;;;5121163;27;20043;-79
2023/09/26 04:40:10;;;;;;;10.35;7.50;;;;;;;;;;5129692;28;20039;-80
2023/09/26 04:42:36;;;;;;;10.95;7.72;;;;;;;;;;5133387;28;20357;-80
2023/09/26 04:45:02;;;;;;;11.98;7.68;;;;;;;;;;5134827;27;20047;-80
2023/09/26 04:47:28;;;;;;;11.52;7.43;;;;;;;;;;5153422;27;20136;-81
2023/09/26 04:49:54;;;;;;;9.52;7.70;;;;;;;;;;5151947;27;20446;-80
2023/09/26 04:52:20;;;;;;;11.77;7.35;;;;;;;;;;5123029;28;20070;-80
2023/09/26 04:54:46;;;;;;;10.68;6.95;;;;;;;;;;5132871;28;20043;-80
2023/09/26 04:57:12;;;;;;;11.35;7.38;;;;;;;;;;5129448;28;20104;-81
2023/09/26 04:59:38;;;;;;;10.45;7.78;;;;;;;;;;5114577;28;20051;-79
2023/09/26 05:02:04;;;;;;;11.65;7.55;;;;;;;;;;5114888;28;20065;-80
2023/09/26 05:04:30;;;;;;;10.02;7.20;;;;;;;;;;5115015;28;20550;-80
2023/09/26 05:06:56;;;;;;;9.70;7.18;;;;;;;;;;5132771;28;20522;-80
2023/09/26 05:09:23;;;;;;;11.32;7.50;;;;;;;;;;5131823;28;20059;-80
2023/09/26 05:11:49;;;;;;;11.85;7.07;;;;;;;;;;5127505;27;20035;-80
2023/09/26 05:14:15;;;;;;;11.45;7.30;;;;;;;;;;5151803;27;20091;-79
2023/09/26 05:16:41;;;;;;;10.40;7.15;;;;;;;;;;5108586;28;20475;-79
2023/09/26 05:19:07;;;;;;;10.05;7.45;;;;;;;;;;5132775;27;20039;-79
2023/09/26 05:21:33;;;;;;;12.48;7.53;;;;;;;;;;5143500;27;20425;-79
2023/09/26 05:23:59;;;;;;;10.43;7.38;;;;;;;;;;5143979;27;20447;-79
2023/09/26 05:26:25;;;;;;;10.40;7.50;;;;;;;;;;5110860;27;20059;-79
2023/09/26 05:28:51;;;;;;;12.93;8.00;;;;;;;;;;5136656;27;20072;-79
2023/09/26 05:31:18;;;;;;;11.57;7.80;;;;;;;;;;5146398;27;20046;-79
2023/09/26 05:33:44;;;;;;;9.27;7.05;;;;;;;;;;5156718;27;20436;-79
2023/09/26 05:36:10;;;;;;;11.35;7.95;;;;;;;;;;5150466;27;20386;-79
2023/09/26 05:38:36;;;;;;;11.25;8.35;;;;;;;;;;5129379;27;20138;-79
2023/09/26 05:41:02;;;;;;;11.20;8.05;;;;;;;;;;5117848;27;20050;-80
2023/09/26 05:43:32;;;;;;;10.98;7.95;;;;;;;;;;5136527;27;20046;-80
2023/09/26 05:45:59;;;;;;;14.40;8.57;;;;;;;;;;5114179;28;20050;-80
2023/09/26 05:48:26;;;;;;;12.38;8.98;;;;;;;;;;5114965;28;20075;-80
2023/09/26 05:51:04;;;;;;;12.00;8.82;;;;;;;;;;5115363;28;20464;-79
2023/09/26 05:53:31;;;;;;;10.85;8.55;;;;;;;;;;5117642;27;20092;-80
2023/09/26 05:55:57;;;;;;;10.73;8.90;;;;;;;;;;5156311;27;20479;-81
2023/09/26 05:58:23;;;;;;;11.02;8.98;;;;;;;;;;5138326;27;20042;-80
2023/09/26 06:00:49;;;;;;;12.35;8.60;;;;;;;;;;5137713;27;20043;-80
2023/09/26 06:03:15;;;;;;;12.07;9.10;;;;;;;;;;5136452;27;20348;-79
2023/09/26 06:05:43;;;;;;;11.93;9.10;;;;;;;;;;5137478;27;20050;-80
2023/09/26 06:08:10;;;;;;;10.35;9.10;;;;;;;;;;5138351;27;20398;-80
2023/09/26 06:10:36;;;;;;;12.38;8.82;;;;;;;;;;5135935;27;20050;-80
2023/09/26 06:13:02;;;;;;;10.98;8.95;;;;;;;;;;5156332;27;20099;-80
2023/09/26 06:15:28;;;;;;;11.25;8.98;;;;;;;;;;5137711;27;20130;-79
2023/09/26 06:18:00;;;;;;;13.65;8.95;;;;;;;;;;5137928;27;20042;-79
2023/09/26 06:20:30;;;;;;;12.30;9.43;;;;;;;;;;5137136;27;20129;-79
2023/09/26 06:22:56;;;;;;;11.70;9.10;;;;;;;;;;5156261;27;20130;-79
2023/09/26 06:25:22;;;;;;;13.27;9.95;;;;;;;;;;5123796;27;20043;-80
2023/09/26 06:27:49;;;;;;;12.30;9.02;;;;;;;;;;5114805;28;20043;-80
2023/09/26 06:30:15;;;;;;;13.27;8.90;;;;;;;;;;5136184;27;20335;-81
2023/09/26 06:32:45;;;;;;;11.45;9.10;;;;;;;;;;5133686;27;20118;-80
2023/09/26 06:35:11;;;;;;;12.55;9.27;;;;;;;;;;5130596;27;20134;-79
2023/09/26 06:37:37;;;;;;;13.90;9.55;;;;;;;;;;5132188;27;20416;-79
2023/09/26 06:40:06;;;;;;;13.05;8.93;;;;;;;;;;5132316;27;20095;-79
2023/09/26 06:42:33;;;;;;;11.40;9.20;;;;;;;;;;5136627;27;20061;-79
2023/09/26 06:44:59;;;;;;;13.85;9.20;;;;;;;;;;5134275;27;20134;-80
2023/09/26 06:47:25;;;;;;;13.40;9.18;;;;;;;;;;5134966;27;20525;-80
2023/09/26 06:49:52;;;;;;;11.93;8.98;;;;;;;;;;5134463;27;20046;-80
2023/09/26 06:52:18;;;;;;;13.73;8.88;;;;;;;;;;5116591;27;20066;-79
2023/09/26 06:54:44;;;;;;;13.38;9.00;;;;;;;;;;5099213;27;20043;-80
2023/09/26 06:57:12;;;;;;;12.25;8.90;;;;;;;;;;5135131;27;20355;-78
2023/09/26 06:59:38;;;;;;;11.40;8.13;;;;;;;;;;5131261;27;20046;-80
2023/09/26 07:02:04;;;;;;;13.95;8.35;;;;;;;;;;5119775;27;20041;-80
2023/09/26 07:04:30;;;;;;;12.60;8.65;;;;;;;;;;5117063;27;20053;-80
2023/09/26 07:06:56;;;;;;;12.25;8.27;;;;;;;;;;5118119;27;20058;-80
2023/09/26 07:09:23;;;;;;;15.75;8.50;;;;;;;;;;5136762;27;20053;-80
2023/09/26 07:11:49;;;;;;;13.05;8.00;;;;;;;;;;5136353;27;20130;-80
2023/09/26 07:14:15;;;;;;;13.15;8.00;;;;;;;;;;5141246;27;20050;-80
2023/09/26 07:16:41;;;;;;;14.77;8.05;;;;;;;;;;5135707;27;20391;-80
2023/09/26 07:19:07;;;;;;;12.05;7.57;;;;;;;;;;5134112;27;20047;-80
2023/09/26 07:21:34;;;;;;;12.75;8.25;;;;;;;;;;5115913;27;20439;-80
2023/09/26 07:24:00;;;;;;;11.43;7.65;;;;;;;;;;5137721;27;20043;-81
2023/09/26 07:26:26;;;;;;;10.93;7.43;;;;;;;;;;5120128;27;20114;-81
2023/09/26 07:28:52;;;;;;;12.02;7.60;;;;;;;;;;5109176;27;20047;-81
2023/09/26 07:31:19;;;;;;;13.00;7.25;;;;;;;;;;5105800;27;20126;-81
2023/09/26 07:33:45;;;;;;;10.80;7.40;;;;;;;;;;5132036;27;20081;-81
2023/09/26 07:36:12;;;;;;;9.98;7.22;;;;;;;;;;5131183;27;20051;-81
2023/09/26 07:38:38;;;;;;;11.45;7.07;;;;;;;;;;5133916;27;20142;-80
2023/09/26 07:41:04;;;;;;;11.95;7.60;;;;;;;;;;5132700;27;20046;-80
2023/09/26 07:43:32;;;;;;;9.63;7.18;;;;;;;;;;5136115;27;20042;-81
2023/09/26 07:46:05;;;;;;;14.70;7.13;;;;;;;;;;5135952;27;20039;-81
2023/09/26 07:48:31;;;;;;;10.40;7.57;;;;;;;;;;5136203;27;20042;-81
2023/09/26 07:50:57;;;;;;;10.20;7.55;;;;;;;;;;5135851;27;20038;-81
2023/09/26 07:53:24;;;;;;;18.38;7.40;;;;;;;;;;5127083;27;20054;-81
2023/09/26 07:55:50;;;;;;;9.38;6.85;;;;;;;;;;5118998;27;20074;-80
2023/09/26 07:58:16;;;;;;;10.90;7.05;;;;;;;;;;5131682;27;20431;-80
2023/09/26 08:00:43;;;;;;;12.05;7.53;;;;;;;;;;5079294;27;20044;-80
2023/09/26 08:03:09;;;;;;;11.15;7.32;;;;;;;;;;5133360;27;20073;-81
2023/09/26 08:05:35;;;;;;;10.88;7.18;;;;;;;;;;5107430;28;20128;-80
2023/09/26 08:08:04;;;;;;;12.70;7.50;;;;;;;;;;5113077;28;20043;-80
2023/09/26 08:10:40;;;;;;;11.07;7.20;;;;;;;;;;5129169;27;20134;-80
2023/09/26 08:13:06;;;;;;;;;;;;;;;;;;5131863;27;20064;-80
2023/09/26 08:15:32;;;;;;;12.27;7.10;;;;;;;;;;5127140;27;19918;-72
2023/09/26 08:17:59;;;;;;;12.38;7.03;;;;;;;;;;5140805;27;20043;-73
2023/09/26 08:20:25;;;;;;;13.27;7.35;;;;;;;;;;5153898;27;20094;-74
2023/09/26 08:22:51;;;;;;;12.40;6.75;;;;;;;;;;5115865;27;20035;-74
2023/09/26 08:25:17;;;;;;;12.25;6.93;;;;;;;;;;5149629;27;20605;-75
2023/09/26 08:27:43;;;;;;;11.65;7.05;;;;;;;;;;5137291;27;20108;-74
2023/09/26 08:30:11;;;;;;;11.00;6.35;;;;;;;;;;5112317;28;20134;-74
2023/09/26 08:32:37;;;;;;;10.85;6.97;;;;;;;;;;5137446;27;20047;-76
2023/09/26 08:35:04;;;;;;;12.38;7.07;;;;;;;;;;5123515;27;20040;-75
2023/09/26 08:37:33;;;;;;;9.65;6.18;;;;;;;;;;5144309;27;20111;-74
2023/09/26 08:39:59;;;;;;;9.75;6.18;;;;;;;;;;5133312;27;20080;-74
2023/09/26 08:42:26;;;;;;;12.18;6.20;;;;;;;;;;5154124;27;20040;-74
2023/09/26 08:44:52;;;;;;;9.23;6.20;;;;;;;;;;5130275;28;20122;-74
2023/09/26 08:47:21;;;;;;;11.88;6.00;;;;;;;;;;5134703;27;20054;-75
2023/09/26 08:49:47;;;;;;;10.55;6.40;;;;;;;;;;5149190;27;20478;-75
2023/09/26 08:52:13;;;;;;;9.48;6.10;;;;;;;;;;5129027;28;20588;-74
2023/09/26 08:54:39;;;;;;;9.35;6.38;;;;;;;;;;5131800;27;20043;-74
2023/09/26 08:57:05;;;;;;;9.48;6.15;;;;;;;;;;5136716;27;20072;-75
2023/09/26 08:59:31;;;;;;;10.73;5.88;;;;;;;;;;5113946;27;20048;-73
2023/09/26 09:01:57;;;;;;;10.07;6.03;;;;;;;;;;5132776;27;20180;-74
2023/09/26 09:04:24;;;;;;;8.38;5.70;;;;;;;;;;5157792;27;20050;-74
2023/09/26 09:07:00;;;;;;;14.07;5.95;;;;;;;;;;5138638;27;20103;-74
2023/09/26 09:09:26;;;;;;;10.35;5.72;;;;;;;;;;5137582;27;20078;-75
2023/09/26 09:11:52;;;;;;;9.43;5.20;;;;;;;;;;5127993;27;20092;-74
2023/09/26 09:14:30;;;;;;;10.13;5.25;;;;;;;;;;5121592;27;20195;-74
2023/09/26 09:16:56;;;;;;;9.88;5.78;;;;;;;;;;5115840;28;20043;-74
2023/09/26 09:19:36;;;;;;;9.90;5.20;;;;;;;;;;5114716;27;20048;-74
2023/09/26 09:22:23;;;;;;;9.13;5.20;;;;;;;;;;5121118;27;20047;-74
2023/09/26 09:24:56;;;;;;;9.13;4.90;;;;;;;;;;5134120;27;20050;-74
2023/09/26 09:27:29;;;;;;;10.15;4.72;;;;;;;;;;5114191;28;20057;-74
2023/09/26 09:30:04;;;;;;;10.35;4.93;;;;;;;;;;5097729;28;20466;-75
2023/09/26 09:32:30;;;;;;;10.00;4.87;;;;;;;;;;5118057;27;20050;-74
2023/09/26 09:34:56;;;;;;;10.50;4.85;;;;;;;;;;5137575;27;20054;-74
2023/09/26 09:37:22;;;;;;;7.93;4.50;;;;;;;;;;5156860;27;20046;-74
2023/09/26 09:39:48;;;;;;;10.00;4.65;;;;;;;;;;5155372;27;20492;-75
2023/09/26 09:42:14;;;;;;;11.30;4.72;;;;;;;;;;5156861;27;20096;-74
2023/09/26 09:44:40;;;;;;;11.20;5.00;;;;;;;;;;5132224;27;20505;-74
2023/09/26 09:47:11;;;;;;;7.82;4.47;;;;;;;;;;5138611;27;20061;-75
2023/09/26 09:49:41;;;;;;;10.60;5.30;;;;;;;;;;5120144;27;20039;-75
2023/09/26 09:52:09;;;;;;;10.50;4.30;;;;;;;;;;5128659;27;20079;-74
2023/09/26 09:54:37;;;;;;;10.10;4.63;;;;;;;;;;5117109;27;20504;-74
2023/09/26 09:57:09;;;;;;;10.88;4.43;;;;;;;;;;5135913;27;20436;-75
2023/09/26 09:59:37;;;;;;;8.63;4.53;;;;;;;;;;5117112;27;20444;-74
2023/09/26 10:02:11;;;;;;;9.70;4.85;;;;;;;;;;5136862;27;20148;-74
2023/09/26 10:04:37;;;;;;;11.25;5.07;;;;;;;;;;5101493;27;20042;-74
2023/09/26 10:07:04;;;;;;;8.77;4.82;;;;;;;;;;5117313;27;20047;-75
2023/09/26 10:09:31;;;;;;;15.15;5.03;;;;;;;;;;5131218;27;20062;-74
2023/09/26 10:11:58;;;;;;;11.32;4.75;;;;;;;;;;5103969;27;20039;-74
2023/09/26 10:14:27;;;;;;;10.75;4.90;;;;;;;;;;5100425;27;20129;-74
2023/09/26 10:16:55;;;;;;;8.90;4.75;;;;;;;;;;5116963;27;20096;-74
2023/09/26 10:19:23;;;;;;;10.07;4.85;;;;;;;;;;5100889;27;20047;-74
2023/09/26 10:21:49;;;;;;;9.00;4.93;;;;;;;;;;5115687;27;20043;-74
2023/09/26 10:24:16;;;;;;;8.18;4.15;;;;;;;;;;5150007;27;20110;-74
2023/09/26 10:26:47;;;;;;;9.00;4.50;;;;;;;;;;5117316;27;20043;-74
2023/09/26 10:29:29;;;;;;;10.82;4.25;;;;;;;;;;5134943;27;20043;-75
2023/09/26 10:32:05;;;;;;;9.48;4.35;;;;;;;;;;5135138;27;20043;-75
2023/09/26 10:34:36;;;;;;;10.38;4.50;;;;;;;;;;5114175;28;20040;-76
2023/09/26 10:37:03;;;;;;;8.27;4.40;;;;;;;;;;5114721;28;20058;-76
2023/09/26 10:39:43;;;;;;;7.88;4.65;;;;;;;;;;5122534;27;20529;-76
2023/09/26 10:42:10;;;;;;;9.07;4.78;;;;;;;;;;5149336;27;20099;-82
2023/09/26 10:44:37;;;;;;;6.88;4.30;;;;;;;;;;5119597;27;20436;-81
2023/09/26 10:47:04;;;;;;;8.13;4.88;;;;;;;;;;5137052;27;20050;-81
2023/09/26 10:49:31;;;;;;;10.50;4.75;;;;;;;;;;5155719;27;20436;-81
2023/09/26 10:51:59;;;;;;;7.85;4.85;;;;;;;;;;5137008;27;20125;-81
2023/09/26 10:54:25;;;;;;;7.88;4.88;;;;;;;;;;5136594;27;20077;-80
2023/09/26 10:56:52;;;;;;;7.18;4.40;;;;;;;;;;5119927;27;20178;-80
2023/09/26 10:59:19;;;;;;;9.05;4.57;;;;;;;;;;5136917;27;20039;-80
2023/09/26 11:01:45;;;;;;;7.25;4.50;;;;;;;;;;5137568;27;20038;-81
2023/09/26 11:04:12;;;;;;;9.60;5.32;;;;;;;;;;5135550;27;20483;-80
2023/09/26 11:06:38;;;;;;;8.18;4.15;;;;;;;;;;5135183;27;20047;-80
2023/09/26 11:09:04;;;;;;;11.23;4.35;;;;;;;;;;5136492;27;20084;-80
2023/09/26 11:11:30;;;;;;;9.70;3.97;;;;;;;;;;5136554;27;20047;-84
2023/09/26 11:13:56;;;;;;;7.97;4.25;;;;;;;;;;5121082;27;20043;-89
2023/09/26 11:16:23;;;;;;;8.63;4.32;;;;;;;;;;5121637;27;20058;-90
2023/09/26 11:18:55;;;;;;;8.32;4.30;;;;;;;;;;5121630;27;20550;-88
2023/09/26 11:21:21;;;;;;;8.75;4.00;;;;;;;;;;5136889;27;20043;-89
2023/09/26 11:23:47;;;;;;;6.78;4.10;;;;;;;;;;5120242;27;20050;-89
2023/09/26 11:26:13;;;;;;;7.22;4.20;;;;;;;;;;5103690;28;20043;-90
2023/09/26 11:28:40;;;;;;;9.07;4.18;;;;;;;;;;5081092;28;20458;-90
2023/09/26 11:31:06;;;;;;;6.82;4.47;;;;;;;;;;5081658;28;20047;-90
2023/09/26 11:33:34;;;;;;;5.75;3.78;;;;;;;;;;5081400;28;20130;-91
2023/09/26 11:36:01;;;;;;;6.65;3.90;;;;;;;;;;5080309;28;20051;-90
2023/09/26 11:38:27;;;;;;;8.20;4.28;;;;;;;;;;5079131;28;20130;-88
2023/09/26 11:40:54;;;;;;;7.03;3.97;;;;;;;;;;5080003;28;20058;-81
2023/09/26 11:43:20;;;;;;;6.57;3.95;;;;;;;;;;5093650;28;20043;-80
2023/09/26 11:45:47;;;;;;;8.73;4.35;;;;;;;;;;5095207;28;20146;-80
2023/09/26 11:48:13;;;;;;;7.05;3.95;;;;;;;;;;5113313;28;20043;-80
2023/09/26 11:50:40;;;;;;;5.70;3.50;;;;;;;;;;5113324;28;20043;-81
2023/09/26 11:53:07;;;;;;;7.65;3.67;;;;;;;;;;5113116;28;20044;-80
2023/09/26 11:55:35;;;;;;;6.25;3.80;;;;;;;;;;5113274;28;20175;-82
2023/09/26 11:58:01;;;;;;;5.20;3.85;;;;;;;;;;5113266;28;20047;-82
2023/09/26 12:00:27;;;;;;;6.95;3.80;;;;;;;;;;5112991;28;20071;-81
2023/09/26 12:02:53;;;;;;;5.72;3.70;;;;;;;;;;5112685;28;20043;-80
2023/09/26 12:05:20;;;;;;;6.82;3.63;;;;;;;;;;5112762;28;20039;-80
2023/09/26 12:07:50;;;;;;;6.25;3.80;;;;;;;;;;5095011;28;20066;-82
2023/09/26 12:10:16;;;;;;;5.82;3.75;;;;;;;;;;5113344;28;20077;-81
2023/09/26 12:12:43;;;;;;;7.63;3.75;;;;;;;;;;5111153;28;20067;-84
2023/09/26 12:15:22;;;;;;;10.18;3.78;;;;;;;;;;5077565;28;20055;-80
2023/09/26 12:17:48;;;;;;;8.10;4.00;;;;;;;;;;5094680;28;20142;-77
2023/09/26 12:20:21;;;;;;;7.50;4.03;;;;;;;;;;5112403;28;20039;-77
2023/09/26 12:22:48;;;;;;;7.68;3.92;;;;;;;;;;5094072;28;20491;-76
2023/09/26 12:25:14;;;;;;;6.93;3.78;;;;;;;;;;5132723;27;20095;-76
2023/09/26 12:27:40;;;;;;;8.55;4.32;;;;;;;;;;5137333;27;20077;-75
2023/09/26 12:30:07;;;;;;;10.02;3.80;;;;;;;;;;5113550;27;20137;-76
2023/09/26 12:32:33;;;;;;;8.00;3.90;;;;;;;;;;5127396;27;20066;-75
2023/09/26 12:35:00;;;;;;;10.15;3.83;;;;;;;;;;5122312;27;20051;-76
2023/09/26 12:37:26;;;;;;;5.30;3.45;;;;;;;;;;5140263;27;20391;-76
2023/09/26 12:39:53;;;;;;;11.38;4.00;;;;;;;;;;5137023;27;20051;-76
2023/09/26 12:42:19;;;;;;;5.43;4.00;;;;;;;;;;5137906;27;20372;-76
2023/09/26 12:44:46;;;;;;;9.40;3.70;;;;;;;;;;5114255;28;20365;-76
2023/09/26 12:47:13;;;;;;;5.45;3.75;;;;;;;;;;5097845;28;20476;-75
2023/09/26 12:49:40;;;;;;;8.55;3.85;;;;;;;;;;5154809;27;20046;-76
2023/09/26 12:52:07;;;;;;;8.55;3.90;;;;;;;;;;5137353;27;20491;-75
2023/09/26 12:54:33;;;;;;;7.50;3.72;;;;;;;;;;5157061;27;20137;-75
2023/09/26 12:57:01;;;;;;;5.28;3.50;;;;;;;;;;5157306;27;20077;-75
2023/09/26 12:59:28;;;;;;;6.50;3.80;;;;;;;;;;5136905;27;20080;-75
2023/09/26 13:01:55;;;;;;;6.18;3.85;;;;;;;;;;5157090;27;20043;-75
2023/09/26 13:04:22;;;;;;;7.70;3.75;;;;;;;;;;5157365;27;20086;-75
2023/09/26 13:06:48;;;;;;;6.82;3.88;;;;;;;;;;5137124;27;20114;-76
2023/09/26 13:09:14;;;;;;;9.50;3.67;;;;;;;;;;5156646;27;20047;-75
2023/09/26 13:11:41;;;;;;;7.18;4.00;;;;;;;;;;5157531;27;20049;-75
2023/09/26 13:14:07;;;;;;;7.95;4.07;;;;;;;;;;5157304;27;20046;-75
2023/09/26 13:16:34;;;;;;;6.82;3.97;;;;;;;;;;5136000;27;20044;-75
2023/09/26 13:19:00;;;;;;;7.18;3.90;;;;;;;;;;5099261;27;20039;-75
2023/09/26 13:21:26;;;;;;;7.90;4.10;;;;;;;;;;5136505;27;20043;-73
2023/09/26 13:23:53;;;;;;;7.15;4.15;;;;;;;;;;5136404;27;20031;-74
2023/09/26 13:26:19;;;;;;;6.18;4.20;;;;;;;;;;5128650;27;20040;-73
2023/09/26 13:28:45;;;;;;;6.47;3.83;;;;;;;;;;5131278;27;20109;-72
2023/09/26 13:31:12;;;;;;;8.40;3.80;;;;;;;;;;5129729;27;20043;-73
2023/09/26 13:33:38;;;;;;;5.72;3.70;;;;;;;;;;5114942;27;20076;-74
2023/09/26 13:36:05;;;;;;;8.18;3.92;;;;;;;;;;5117520;27;20398;-73
2023/09/26 13:38:31;;;;;;;5.38;3.40;;;;;;;;;;5124842;27;20444;-73
2023/09/26 13:40:57;;;;;;;8.02;3.70;;;;;;;;;;5121600;27;20525;-73
2023/09/26 13:43:23;;;;;;;6.95;4.03;;;;;;;;;;5101665;27;20487;-74
2023/09/26 13:45:49;;;;;;;6.93;3.78;;;;;;;;;;5135357;27;20413;-75
2023/09/26 13:48:15;;;;;;;8.30;4.10;;;;;;;;;;5116537;27;20050;-75
2023/09/26 13:50:41;;;;;;;8.55;4.10;;;;;;;;;;5134716;27;20043;-75
2023/09/26 13:53:07;;;;;;;7.28;3.65;;;;;;;;;;5136134;27;20483;-75
2023/09/26 13:55:33;;;;;;;7.28;4.13;;;;;;;;;;5136057;27;20035;-75
2023/09/26 13:57:59;;;;;;;7.45;3.90;;;;;;;;;;5121624;27;20054;-75
2023/09/26 14:00:27;;;;;;;7.03;3.85;;;;;;;;;;5135745;27;20092;-75
2023/09/26 14:02:53;;;;;;;7.97;4.13;;;;;;;;;;5126568;27;20113;-76
2023/09/26 14:05:23;;;;;;;6.75;4.40;;;;;;;;;;5154107;27;20116;-79
2023/09/26 14:07:49;;;;;;;9.40;4.65;;;;;;;;;;5116360;27;20347;-79
2023/09/26 14:10:16;;;;;;;6.50;4.40;;;;;;;;;;5150738;27;20351;-79
2023/09/26 14:12:42;;;;;;;10.32;4.47;;;;;;;;;;5134544;27;20130;-79
2023/09/26 14:15:09;;;;;;;7.55;4.20;;;;;;;;;;5134253;27;20058;-79
2023/09/26 14:17:35;;;;;;;7.72;4.10;;;;;;;;;;5153523;27;20050;-79
2023/09/26 14:20:01;;;;;;;8.38;4.47;;;;;;;;;;5152930;27;20157;-79
2023/09/26 14:22:27;;;;;;;6.95;4.07;;;;;;;;;;5134580;27;20107;-78
2023/09/26 14:24:54;;;;;;;7.78;4.60;;;;;;;;;;5128919;27;20050;-79
2023/09/26 14:27:20;;;;;;;7.30;4.20;;;;;;;;;;5092310;28;20043;-78
2023/09/26 14:29:46;;;;;;;6.68;4.35;;;;;;;;;;5091506;28;20055;-79
2023/09/26 14:32:12;;;;;;;9.15;4.60;;;;;;;;;;5093155;28;20071;-79
2023/09/26 14:34:39;;;;;;;9.43;4.53;;;;;;;;;;5093138;28;20406;-79
2023/09/26 14:37:05;;;;;;;9.20;4.70;;;;;;;;;;5092880;28;20047;-78